sensor_id;sensor_type;location;lat;lon;timestamp;pressure;altitude;pressure_sealevel;temperature;humidity
14041;BME280;7095;51.388;6.196;2023-04-26T00:00:01;54725.97;;;-145.32;100.00
14041;BME280;7095;51.388;6.196;2023-04-26T00:02:35;54747.84;;;-145.32;100.00
14041;BME280;7095;51.388;6.196;2023-04-26T00:05:04;54749.81;;;-145.32;100.00
14041;BME280;7095;51.388;6.196;2023-04-26T00:07:34;54720.00;;;-145.32;100.00
14041;BME280;7095;51.388;6.196;2023-04-26T00:10:06;54779.66;;;-145.32;100.00
14041;BME280;7095;51.388;6.196;2023-04-26T00:12:34;54777.66;;;-145.32;100.00
14041;BME280;7095;51.388;6.196;2023-04-26T00:15:04;54821.41;;;-145.32;100.00
14041;BME280;7095;51.388;6.196;2023-04-26T00:17:33;54797.56;;;-145.32;100.00
14041;BME280;7095;51.388;6.196;2023-04-26T00:20:02;54777.66;;;-145.32;100.00
14041;BME280;7095;51.388;6.196;2023-04-26T00:22:33;54779.66;;;-145.32;100.00
14041;BME280;7095;51.388;6.196;2023-04-26T00:25:01;54827.38;;;-145.32;100.00
14041;BME280;7095;51.388;6.196;2023-04-26T00:27:31;54807.50;;;-145.32;100.00
14041;BME280;7095;51.388;6.196;2023-04-26T00:29:59;54773.69;;;-145.32;100.00
14041;BME280;7095;51.388;6.196;2023-04-26T00:32:29;54771.69;;;-145.32;100.00
14041;BME280;7095;51.388;6.196;2023-04-26T00:34:58;54775.69;;;-145.32;100.00
14041;BME280;7095;51.388;6.196;2023-04-26T00:37:26;54821.41;;;-145.32;100.00
14041;BME280;7095;51.388;6.196;2023-04-26T00:39:54;54803.53;;;-145.32;100.00
14041;BME280;7095;51.388;6.196;2023-04-26T00:42:23;54755.78;;;-145.32;100.00
14041;BME280;7095;51.388;6.196;2023-04-26T00:44:53;54763.75;;;-145.32;100.00
14041;BME280;7095;51.388;6.196;2023-04-26T00:47:24;54771.69;;;-145.32;100.00
14041;BME280;7095;51.388;6.196;2023-04-26T00:49:52;54813.47;;;-145.32;100.00
14041;BME280;7095;51.388;6.196;2023-04-26T00:52:21;54843.28;;;-145.32;100.00
14041;BME280;7095;51.388;6.196;2023-04-26T00:54:52;54791.59;;;-145.32;100.00
14041;BME280;7095;51.388;6.196;2023-04-26T00:57:22;54819.44;;;-145.32;100.00
14041;BME280;7095;51.388;6.196;2023-04-26T00:59:50;54861.19;;;-145.32;100.00
14041;BME280;7095;51.388;6.196;2023-04-26T01:02:20;54851.25;;;-145.32;100.00
14041;BME280;7095;51.388;6.196;2023-04-26T01:04:49;54918.88;;;-145.32;100.00
14041;BME280;7095;51.388;6.196;2023-04-26T01:07:17;54857.22;;;-145.32;100.00
14041;BME280;7095;51.388;6.196;2023-04-26T01:09:46;54849.25;;;-145.32;100.00
14041;BME280;7095;51.388;6.196;2023-04-26T01:12:15;54841.31;;;-145.32;100.00
14041;BME280;7095;51.388;6.196;2023-04-26T01:14:44;54877.09;;;-145.32;100.00
14041;BME280;7095;51.388;6.196;2023-04-26T01:17:14;54918.88;;;-145.32;100.00
14041;BME280;7095;51.388;6.196;2023-04-26T01:19:47;54895.00;;;-145.32;100.00
14041;BME280;7095;51.388;6.196;2023-04-26T01:22:16;54861.19;;;-145.32;100.00
14041;BME280;7095;51.388;6.196;2023-04-26T01:24:48;54879.09;;;-145.32;100.00
14041;BME280;7095;51.388;6.196;2023-04-26T01:27:17;54811.47;;;-145.32;100.00
14041;BME280;7095;51.388;6.196;2023-04-26T01:29:46;54910.91;;;-145.32;100.00
14041;BME280;7095;51.388;6.196;2023-04-26T01:32:15;54906.94;;;-145.32;100.00
14041;BME280;7095;51.388;6.196;2023-04-26T01:34:43;54936.78;;;-145.32;100.00
14041;BME280;7095;51.388;6.196;2023-04-26T01:37:12;54887.06;;;-145.32;100.00
14041;BME280;7095;51.388;6.196;2023-04-26T01:39:41;54912.91;;;-145.32;100.00
14041;BME280;7095;51.388;6.196;2023-04-26T01:42:12;54950.69;;;-145.32;100.00
14041;BME280;7095;51.388;6.196;2023-04-26T01:44:43;54891.03;;;-145.32;100.00
14041;BME280;7095;51.388;6.196;2023-04-26T01:47:12;54904.94;;;-145.32;100.00
14041;BME280;7095;51.388;6.196;2023-04-26T01:49:40;54871.16;;;-145.32;100.00
14041;BME280;7095;51.388;6.196;2023-04-26T01:52:08;54934.78;;;-145.32;100.00
14041;BME280;7095;51.388;6.196;2023-04-26T01:54:36;54899.00;;;-145.32;100.00
14041;BME280;7095;51.388;6.196;2023-04-26T01:57:05;54895.00;;;-145.32;100.00
14041;BME280;7095;51.388;6.196;2023-04-26T01:59:35;54930.81;;;-145.32;100.00
14041;BME280;7095;51.388;6.196;2023-04-26T02:02:03;54948.72;;;-145.32;100.00
14041;BME280;7095;51.388;6.196;2023-04-26T02:04:32;54996.44;;;-145.32;100.00
14041;BME280;7095;51.388;6.196;2023-04-26T02:07:00;55032.25;;;-145.32;100.00
14041;BME280;7095;51.388;6.196;2023-04-26T02:09:28;54954.69;;;-145.32;100.00
14041;BME280;7095;51.388;6.196;2023-04-26T02:11:57;54958.66;;;-145.32;100.00
14041;BME280;7095;51.388;6.196;2023-04-26T02:14:25;54948.72;;;-145.32;100.00
14041;BME280;7095;51.388;6.196;2023-04-26T02:16:55;54978.53;;;-145.32;100.00
14041;BME280;7095;51.388;6.196;2023-04-26T02:19:24;54938.75;;;-145.32;100.00
14041;BME280;7095;51.388;6.196;2023-04-26T02:21:54;54952.69;;;-145.32;100.00
14041;BME280;7095;51.388;6.196;2023-04-26T02:24:23;54994.47;;;-145.32;100.00
14041;BME280;7095;51.388;6.196;2023-04-26T02:26:52;55014.34;;;-145.32;100.00
14041;BME280;7095;51.388;6.196;2023-04-26T02:29:21;54932.78;;;-145.32;100.00
14041;BME280;7095;51.388;6.196;2023-04-26T02:32:10;55044.19;;;-145.32;100.00
14041;BME280;7095;51.388;6.196;2023-04-26T02:34:38;55101.84;;;-145.32;100.00
14041;BME280;7095;51.388;6.196;2023-04-26T02:37:07;55085.94;;;-145.32;100.00
14041;BME280;7095;51.388;6.196;2023-04-26T02:39:37;55079.97;;;-145.32;100.00
14041;BME280;7095;51.388;6.196;2023-04-26T02:42:08;55117.78;;;-145.32;100.00
14041;BME280;7095;51.388;6.196;2023-04-26T02:44:37;55097.88;;;-145.32;100.00
14041;BME280;7095;51.388;6.196;2023-04-26T02:47:06;55089.94;;;-145.32;100.00
14041;BME280;7095;51.388;6.196;2023-04-26T02:49:36;54994.47;;;-145.32;100.00
14041;BME280;7095;51.388;6.196;2023-04-26T02:52:05;55048.16;;;-145.32;100.00
14041;BME280;7095;51.388;6.196;2023-04-26T02:54:33;55117.78;;;-145.32;100.00
14041;BME280;7095;51.388;6.196;2023-04-26T02:57:03;55157.56;;;-145.32;100.00
14041;BME280;7095;51.388;6.196;2023-04-26T02:59:31;55113.78;;;-145.32;100.00
14041;BME280;7095;51.388;6.196;2023-04-26T03:02:00;55181.41;;;-145.32;100.00
14041;BME280;7095;51.388;6.196;2023-04-26T03:04:30;55131.69;;;-145.32;100.00
14041;BME280;7095;51.388;6.196;2023-04-26T03:07:01;55083.97;;;-145.32;100.00
14041;BME280;7095;51.388;6.196;2023-04-26T03:09:29;55097.88;;;-145.32;100.00
14041;BME280;7095;51.388;6.196;2023-04-26T03:11:58;55081.97;;;-145.32;100.00
14041;BME280;7095;51.388;6.196;2023-04-26T03:14:26;55042.19;;;-145.32;100.00
14041;BME280;7095;51.388;6.196;2023-04-26T03:16:56;55014.34;;;-145.32;100.00
14041;BME280;7095;51.388;6.196;2023-04-26T03:19:24;55026.28;;;-145.32;100.00
14041;BME280;7095;51.388;6.196;2023-04-26T03:21:54;55018.31;;;-145.32;100.00
14041;BME280;7095;51.388;6.196;2023-04-26T03:24:24;55012.34;;;-145.32;100.00
14041;BME280;7095;51.388;6.196;2023-04-26T03:26:53;54998.44;;;-145.32;100.00
14041;BME280;7095;51.388;6.196;2023-04-26T03:29:21;55022.31;;;-145.32;100.00
14041;BME280;7095;51.388;6.196;2023-04-26T03:31:50;55062.09;;;-145.32;100.00
14041;BME280;7095;51.388;6.196;2023-04-26T03:34:18;55018.31;;;-145.32;100.00
14041;BME280;7095;51.388;6.196;2023-04-26T03:36:47;55066.06;;;-145.32;100.00
14041;BME280;7095;51.388;6.196;2023-04-26T03:39:15;55125.72;;;-145.32;100.00
14041;BME280;7095;51.388;6.196;2023-04-26T03:41:45;55089.94;;;-145.32;100.00
14041;BME280;7095;51.388;6.196;2023-04-26T03:44:13;55078.00;;;-145.32;100.00
14041;BME280;7095;51.388;6.196;2023-04-26T03:46:42;55169.50;;;-145.32;100.00
14041;BME280;7095;51.388;6.196;2023-04-26T03:49:11;55213.25;;;-145.32;100.00
14041;BME280;7095;51.388;6.196;2023-04-26T03:51:39;55115.78;;;-145.32;100.00
14041;BME280;7095;51.388;6.196;2023-04-26T03:54:07;55105.84;;;-145.32;100.00
14041;BME280;7095;51.388;6.196;2023-04-26T03:56:37;55175.44;;;-145.32;100.00
14041;BME280;7095;51.388;6.196;2023-04-26T03:59:07;55205.28;;;-145.32;100.00
14041;BME280;7095;51.388;6.196;2023-04-26T04:01:37;55193.34;;;-145.32;100.00
14041;BME280;7095;51.388;6.196;2023-04-26T04:04:08;55185.41;;;-145.32;100.00
14041;BME280;7095;51.388;6.196;2023-04-26T04:06:38;55241.09;;;-145.32;100.00
14041;BME280;7095;51.388;6.196;2023-04-26T04:09:07;55205.28;;;-145.32;100.00
14041;BME280;7095;51.388;6.196;2023-04-26T04:11:35;55189.38;;;-145.32;100.00
14041;BME280;7095;51.388;6.196;2023-04-26T04:14:03;55322.66;;;-145.32;100.00
14041;BME280;7095;51.388;6.196;2023-04-26T04:16:34;55310.72;;;-145.32;100.00
14041;BME280;7095;51.388;6.196;2023-04-26T04:19:03;55203.31;;;-145.32;100.00
14041;BME280;7095;51.388;6.196;2023-04-26T04:21:31;55165.50;;;-145.32;100.00
14041;BME280;7095;51.388;6.196;2023-04-26T04:24:00;55217.22;;;-145.32;100.00
14041;BME280;7095;51.388;6.196;2023-04-26T04:26:28;55255.00;;;-145.32;100.00
14041;BME280;7095;51.388;6.196;2023-04-26T04:28:58;55213.25;;;-145.32;100.00
14041;BME280;7095;51.388;6.196;2023-04-26T04:31:37;55137.66;;;-145.32;100.00
14041;BME280;7095;51.388;6.196;2023-04-26T04:34:07;55161.53;;;-145.32;100.00
14041;BME280;7095;51.388;6.196;2023-04-26T04:36:37;55231.16;;;-145.32;100.00
14041;BME280;7095;51.388;6.196;2023-04-26T04:39:06;55276.91;;;-145.32;100.00
14041;BME280;7095;51.388;6.196;2023-04-26T04:41:40;55330.59;;;-145.32;100.00
14041;BME280;7095;51.388;6.196;2023-04-26T04:44:14;55420.13;;;-145.32;100.00
14041;BME280;7095;51.388;6.196;2023-04-26T04:46:45;55459.91;;;-145.32;100.00
14041;BME280;7095;51.388;6.196;2023-04-26T04:49:13;55535.50;;;-145.32;100.00
14041;BME280;7095;51.388;6.196;2023-04-26T04:51:42;55579.25;;;-145.32;100.00
14041;BME280;7095;51.388;6.196;2023-04-26T04:54:11;55443.97;;;-145.32;100.00
14041;BME280;7095;51.388;6.196;2023-04-26T04:56:41;55428.06;;;-145.32;100.00
14041;BME280;7095;51.388;6.196;2023-04-26T04:59:12;55543.44;;;-145.32;100.00
14041;BME280;7095;51.388;6.196;2023-04-26T05:01:41;55658.81;;;-145.32;100.00
14041;BME280;7095;51.388;6.196;2023-04-26T05:04:14;55706.56;;;-145.32;100.00
14041;BME280;7095;51.388;6.196;2023-04-26T05:06:43;55666.78;;;-145.32;100.00
14041;BME280;7095;51.388;6.196;2023-04-26T05:09:12;55778.19;;;-145.32;100.00
14041;BME280;7095;51.388;6.196;2023-04-26T05:11:40;55730.44;;;-145.32;100.00
14041;BME280;7095;51.388;6.196;2023-04-26T05:14:10;55865.72;;;-145.32;100.00
14041;BME280;7095;51.388;6.196;2023-04-26T05:16:38;55893.56;;;-145.32;100.00
14041;BME280;7095;51.388;6.196;2023-04-26T05:19:07;55833.88;;;-145.32;100.00
14041;BME280;7095;51.388;6.196;2023-04-26T05:21:37;55871.69;;;-145.32;100.00
14041;BME280;7095;51.388;6.196;2023-04-26T05:24:06;55961.22;;;-145.32;100.00
14041;BME280;7095;51.388;6.196;2023-04-26T05:26:36;56221.84;;;-145.32;100.00
14041;BME280;7095;51.388;6.196;2023-04-26T05:29:19;56464.59;;;-145.32;100.00
14041;BME280;7095;51.388;6.196;2023-04-26T05:32:06;56570.06;;;-145.32;100.00
14041;BME280;7095;51.388;6.196;2023-04-26T05:34:38;56647.66;;;-145.32;100.00
14041;BME280;7095;51.388;6.196;2023-04-26T05:37:10;56812.84;;;-145.32;100.00
14041;BME280;7095;51.388;6.196;2023-04-26T05:39:39;57059.59;;;-145.32;100.00
14041;BME280;7095;51.388;6.196;2023-04-26T05:42:07;57099.41;;;-145.32;100.00
14041;BME280;7095;51.388;6.196;2023-04-26T05:44:36;57177.03;;;-145.32;100.00
14041;BME280;7095;51.388;6.196;2023-04-26T05:47:04;57391.97;;;-145.32;100.00
14041;BME280;7095;51.388;6.196;2023-04-26T05:49:33;57889.59;;;-145.32;100.00
14041;BME280;7095;51.388;6.196;2023-04-26T05:52:01;58122.50;;;-145.32;100.00
14041;BME280;7095;51.388;6.196;2023-04-26T05:54:31;58453.00;;;-145.32;100.00
14041;BME280;7095;51.388;6.196;2023-04-26T05:57:00;58624.22;;;-145.32;100.00
14041;BME280;7095;51.388;6.196;2023-04-26T05:59:30;58779.53;;;-145.32;100.00
14041;BME280;7095;51.388;6.196;2023-04-26T06:01:59;59006.53;;;-145.32;100.00
14041;BME280;7095;51.388;6.196;2023-04-26T06:04:28;58275.81;;;-145.32;100.00
14041;BME280;7095;51.388;6.196;2023-04-26T06:07:03;58458.97;;;-145.32;100.00
14041;BME280;7095;51.388;6.196;2023-04-26T06:09:32;58500.78;;;-145.32;100.00
14041;BME280;7095;51.388;6.196;2023-04-26T06:12:02;58460.97;;;-145.32;100.00
14041;BME280;7095;51.388;6.196;2023-04-26T06:14:34;58080.69;;;-145.32;100.00
14041;BME280;7095;51.388;6.196;2023-04-26T06:17:07;58534.63;;;-145.32;100.00
14041;BME280;7095;51.388;6.196;2023-04-26T06:19:35;57499.44;;;-145.32;100.00
14041;BME280;7095;51.388;6.196;2023-04-26T06:22:04;57268.56;;;-145.32;100.00
14041;BME280;7095;51.388;6.196;2023-04-26T06:24:34;57087.47;;;-145.32;100.00
14041;BME280;7095;51.388;6.196;2023-04-26T06:27:02;57863.72;;;-145.32;100.00
14041;BME280;7095;51.388;6.196;2023-04-26T06:29:31;58226.03;;;-145.32;100.00
14041;BME280;7095;51.388;6.196;2023-04-26T06:32:00;58803.41;;;-145.32;100.00
14041;BME280;7095;51.388;6.196;2023-04-26T06:34:29;59185.75;;;-145.32;100.00
14041;BME280;7095;51.388;6.196;2023-04-26T06:36:58;58930.84;;;-145.32;100.00
14041;BME280;7095;51.388;6.196;2023-04-26T06:39:30;58508.75;;;-145.32;100.00
14041;BME280;7095;51.388;6.196;2023-04-26T06:42:01;60030.22;;;-145.32;100.00
14041;BME280;7095;51.388;6.196;2023-04-26T06:44:47;58508.75;;;-145.32;100.00
14041;BME280;7095;51.388;6.196;2023-04-26T06:47:16;58468.91;;;-145.32;100.00
14041;BME280;7095;51.388;6.196;2023-04-26T06:49:44;59619.91;;;-145.32;100.00
14041;BME280;7095;51.388;6.196;2023-04-26T06:52:13;57871.69;;;-145.32;100.00
14041;BME280;7095;51.388;6.196;2023-04-26T06:54:42;59301.25;;;-145.32;100.00
14041;BME280;7095;51.388;6.196;2023-04-26T06:57:24;58371.38;;;-145.32;100.00
14041;BME280;7095;51.388;6.196;2023-04-26T06:59:52;57161.09;;;-145.32;100.00
14041;BME280;7095;51.388;6.196;2023-04-26T07:02:22;55666.78;;;-145.32;100.00
14041;BME280;7095;51.388;6.196;2023-04-26T07:04:51;55957.25;;;-145.32;100.00
14041;BME280;7095;51.388;6.196;2023-04-26T07:07:20;56311.38;;;-145.32;100.00
14041;BME280;7095;51.388;6.196;2023-04-26T07:09:49;55722.47;;;-145.32;100.00
14041;BME280;7095;51.388;6.196;2023-04-26T07:12:17;55945.31;;;-145.32;100.00
14041;BME280;7095;51.388;6.196;2023-04-26T07:14:47;56287.50;;;-145.32;100.00
14041;BME280;7095;51.388;6.196;2023-04-26T07:17:15;55648.88;;;-145.32;100.00
14041;BME280;7095;51.388;6.196;2023-04-26T07:19:44;56012.94;;;-145.32;100.00
14041;BME280;7095;51.388;6.196;2023-04-26T07:22:12;56028.84;;;-145.32;100.00
14041;BME280;7095;51.388;6.196;2023-04-26T07:24:41;56012.94;;;-145.32;100.00
14041;BME280;7095;51.388;6.196;2023-04-26T07:27:09;56337.25;;;-145.32;100.00
14041;BME280;7095;51.388;6.196;2023-04-26T07:29:38;56279.56;;;-145.32;100.00
14041;BME280;7095;51.388;6.196;2023-04-26T07:32:08;56120.38;;;-145.32;100.00
14041;BME280;7095;51.388;6.196;2023-04-26T07:34:36;56418.84;;;-145.32;100.00
14041;BME280;7095;51.388;6.196;2023-04-26T07:37:04;56536.22;;;-145.32;100.00
14041;BME280;7095;51.388;6.196;2023-04-26T07:39:33;55766.25;;;-145.32;100.00
14041;BME280;7095;51.388;6.196;2023-04-26T07:42:02;55380.34;;;-145.32;100.00
14041;BME280;7095;51.388;6.196;2023-04-26T07:44:31;54924.84;;;-145.32;100.00
14041;BME280;7095;51.388;6.196;2023-04-26T07:46:59;55167.50;;;-145.32;100.00
14041;BME280;7095;51.388;6.196;2023-04-26T07:49:29;54598.69;;;-145.32;100.00
14041;BME280;7095;51.388;6.196;2023-04-26T07:51:58;54485.31;;;-145.32;100.00
14041;BME280;7095;51.388;6.196;2023-04-26T07:54:28;54358.06;;;-145.32;100.00
14041;BME280;7095;51.388;6.196;2023-04-26T07:56:56;54485.31;;;-145.32;100.00
14041;BME280;7095;51.388;6.196;2023-04-26T07:59:25;54680.22;;;-145.32;100.00
14041;BME280;7095;51.388;6.196;2023-04-26T08:01:53;54684.19;;;-145.32;100.00
14041;BME280;7095;51.388;6.196;2023-04-26T08:04:31;54580.78;;;-145.32;100.00
14041;BME280;7095;51.388;6.196;2023-04-26T08:07:01;54650.38;;;-145.32;100.00
14041;BME280;7095;51.388;6.196;2023-04-26T08:09:29;54523.09;;;-145.32;100.00
14041;BME280;7095;51.388;6.196;2023-04-26T08:11:58;54548.97;;;-145.32;100.00
14041;BME280;7095;51.388;6.196;2023-04-26T08:14:26;54479.34;;;-145.32;100.00
14041;BME280;7095;51.388;6.196;2023-04-26T08:16:56;54485.31;;;-145.32;100.00
14041;BME280;7095;51.388;6.196;2023-04-26T08:19:24;54338.16;;;-145.32;100.00
14041;BME280;7095;51.388;6.196;2023-04-26T08:21:58;54278.50;;;-145.32;100.00
14041;BME280;7095;51.388;6.196;2023-04-26T08:24:27;54133.34;;;-145.32;100.00
14041;BME280;7095;51.388;6.196;2023-04-26T08:26:55;54133.34;;;-145.32;100.00
14041;BME280;7095;51.388;6.196;2023-04-26T08:29:25;54041.88;;;-145.32;100.00
14041;BME280;7095;51.388;6.196;2023-04-26T08:31:54;53992.19;;;-145.32;100.00
14041;BME280;7095;51.388;6.196;2023-04-26T08:34:23;53980.25;;;-145.32;100.00
14041;BME280;7095;51.388;6.196;2023-04-26T08:36:51;53982.25;;;-145.32;100.00
14041;BME280;7095;51.388;6.196;2023-04-26T08:39:21;53968.31;;;-145.32;100.00
14041;BME280;7095;51.388;6.196;2023-04-26T08:41:54;53960.38;;;-145.32;100.00
14041;BME280;7095;51.388;6.196;2023-04-26T08:44:24;53940.47;;;-145.32;100.00
14041;BME280;7095;51.388;6.196;2023-04-26T08:47:01;53892.75;;;-145.32;100.00
14041;BME280;7095;51.388;6.196;2023-04-26T08:49:38;53894.75;;;-145.32;100.00
14041;BME280;7095;51.388;6.196;2023-04-26T08:52:09;53853.00;;;-145.32;100.00
14041;BME280;7095;51.388;6.196;2023-04-26T08:54:40;53821.19;;;-145.32;100.00
14041;BME280;7095;51.388;6.196;2023-04-26T08:57:09;53819.19;;;-145.32;100.00
14041;BME280;7095;51.388;6.196;2023-04-26T08:59:38;53833.13;;;-145.32;100.00
14041;BME280;7095;51.388;6.196;2023-04-26T09:02:09;53837.09;;;-145.32;100.00
14041;BME280;7095;51.388;6.196;2023-04-26T09:04:38;53803.28;;;-145.32;100.00
14041;BME280;7095;51.388;6.196;2023-04-26T09:07:08;53791.34;;;-145.32;100.00
14041;BME280;7095;51.388;6.196;2023-04-26T09:09:41;53793.34;;;-145.32;100.00
14041;BME280;7095;51.388;6.196;2023-04-26T09:12:11;53757.56;;;-145.32;100.00
14041;BME280;7095;51.388;6.196;2023-04-26T09:14:40;53765.50;;;-145.32;100.00
14041;BME280;7095;51.388;6.196;2023-04-26T09:17:23;53769.50;;;-145.32;100.00
14041;BME280;7095;51.388;6.196;2023-04-26T09:19:52;53773.47;;;-145.32;100.00
14041;BME280;7095;51.388;6.196;2023-04-26T09:22:28;53793.34;;;-145.32;100.00
14041;BME280;7095;51.388;6.196;2023-04-26T09:24:59;53757.56;;;-145.32;100.00
14041;BME280;7095;51.388;6.196;2023-04-26T09:27:32;53755.56;;;-145.32;100.00
14041;BME280;7095;51.388;6.196;2023-04-26T09:30:06;53745.63;;;-145.32;100.00
14041;BME280;7095;51.388;6.196;2023-04-26T09:32:48;53733.69;;;-145.32;86.39
14041;BME280;7095;51.388;6.196;2023-04-26T09:35:21;53735.69;;;-145.32;100.00
14041;BME280;7095;51.388;6.196;2023-04-26T09:37:54;53721.78;;;-145.32;92.29
14041;BME280;7095;51.388;6.196;2023-04-26T09:40:33;53721.78;;;-145.32;96.37
14041;BME280;7095;51.388;6.196;2023-04-26T09:43:04;53697.91;;;-145.32;100.00
14041;BME280;7095;51.388;6.196;2023-04-26T09:45:44;53783.41;;;-145.32;100.00
14041;BME280;7095;51.388;6.196;2023-04-26T09:48:15;53729.72;;;-145.32;100.00
14041;BME280;7095;51.388;6.196;2023-04-26T09:50:44;53721.78;;;-145.32;100.00
14041;BME280;7095;51.388;6.196;2023-04-26T09:53:27;53689.97;;;-145.32;100.00
14041;BME280;7095;51.388;6.196;2023-04-26T09:56:05;53707.84;;;-145.32;87.78
14041;BME280;7095;51.388;6.196;2023-04-26T09:58:36;53753.59;;;-145.32;99.03
14041;BME280;7095;51.388;6.196;2023-04-26T10:01:06;53725.75;;;-145.32;99.12
14041;BME280;7095;51.388;6.196;2023-04-26T10:03:35;53721.78;;;-145.32;99.57
14041;BME280;7095;51.388;6.196;2023-04-26T10:06:05;53709.84;;;-145.32;99.39
14041;BME280;7095;51.388;6.196;2023-04-26T10:08:34;53654.19;;;-145.32;90.18
14041;BME280;7095;51.388;6.196;2023-04-26T10:11:05;53693.94;;;-145.32;77.67
14041;BME280;7095;51.388;6.196;2023-04-26T10:13:37;53682.00;;;-145.32;88.38
14041;BME280;7095;51.388;6.196;2023-04-26T10:16:06;53646.22;;;-145.32;80.77
14041;BME280;7095;51.388;6.196;2023-04-26T10:18:36;53646.22;;;-145.32;70.13
14041;BME280;7095;51.388;6.196;2023-04-26T10:21:11;53638.28;;;-145.32;69.12
14041;BME280;7095;51.388;6.196;2023-04-26T10:23:41;53670.09;;;-145.32;71.27
14041;BME280;7095;51.388;6.196;2023-04-26T10:29:12;53646.22;;;-145.32;69.96
14041;BME280;7095;51.388;6.196;2023-04-26T10:32:07;53644.22;;;-145.32;61.29
14041;BME280;7095;51.388;6.196;2023-04-26T10:34:37;53606.47;;;-145.32;67.79
14041;BME280;7095;51.388;6.196;2023-04-26T10:37:06;53658.16;;;-145.32;63.34
14041;BME280;7095;51.388;6.196;2023-04-26T10:39:35;53618.38;;;-145.32;55.74
14041;BME280;7095;51.388;6.196;2023-04-26T10:42:20;53670.09;;;-145.32;52.68
14041;BME280;7095;51.388;6.196;2023-04-26T10:44:55;53656.16;;;-145.32;58.29
14041;BME280;7095;51.388;6.196;2023-04-26T10:47:28;53626.34;;;-145.32;58.71
14041;BME280;7095;51.388;6.196;2023-04-26T10:50:02;53650.19;;;-145.32;54.65
14041;BME280;7095;51.388;6.196;2023-04-26T10:52:34;53648.22;;;-145.32;60.43
14041;BME280;7095;51.388;6.196;2023-04-26T10:55:03;53668.09;;;-145.32;63.00
14041;BME280;7095;51.388;6.196;2023-04-26T10:57:56;53634.28;;;-145.32;55.65
14041;BME280;7095;51.388;6.196;2023-04-26T11:00:29;53656.16;;;-145.32;64.20
14041;BME280;7095;51.388;6.196;2023-04-26T11:03:03;53660.13;;;-145.32;60.96
14041;BME280;7095;51.388;6.196;2023-04-26T11:05:52;53642.25;;;-145.32;62.96
14041;BME280;7095;51.388;6.196;2023-04-26T11:08:25;53656.16;;;-145.32;62.08
14041;BME280;7095;51.388;6.196;2023-04-26T11:11:12;53664.13;;;-145.32;53.80
14041;BME280;7095;51.388;6.196;2023-04-26T11:13:45;53646.22;;;-145.32;59.59
14041;BME280;7095;51.388;6.196;2023-04-26T11:16:16;53682.00;;;-145.32;62.85
14041;BME280;7095;51.388;6.196;2023-04-26T11:18:46;53646.22;;;-145.32;61.47
14041;BME280;7095;51.388;6.196;2023-04-26T11:21:15;53674.06;;;-145.32;62.16
14041;BME280;7095;51.388;6.196;2023-04-26T11:23:52;53656.16;;;-145.32;59.64
14041;BME280;7095;51.388;6.196;2023-04-26T11:26:21;53693.94;;;-145.32;65.15
14041;BME280;7095;51.388;6.196;2023-04-26T11:28:50;53666.09;;;-145.32;63.65
14041;BME280;7095;51.388;6.196;2023-04-26T11:31:21;53668.09;;;-145.32;62.80
14041;BME280;7095;51.388;6.196;2023-04-26T11:33:49;53670.09;;;-145.32;64.19
14041;BME280;7095;51.388;6.196;2023-04-26T11:36:18;53684.00;;;-145.32;59.95
14041;BME280;7095;51.388;6.196;2023-04-26T11:38:46;53668.09;;;-145.32;62.00
14041;BME280;7095;51.388;6.196;2023-04-26T11:41:16;53630.31;;;-145.32;64.78
14041;BME280;7095;51.388;6.196;2023-04-26T11:43:44;53646.22;;;-145.32;65.91
14041;BME280;7095;51.388;6.196;2023-04-26T11:46:14;53650.19;;;-145.32;62.50
14041;BME280;7095;51.388;6.196;2023-04-26T11:48:44;53672.06;;;-145.32;63.54
14041;BME280;7095;51.388;6.196;2023-04-26T11:51:13;53634.28;;;-145.32;63.37
14041;BME280;7095;51.388;6.196;2023-04-26T11:53:42;53670.09;;;-145.32;65.70
14041;BME280;7095;51.388;6.196;2023-04-26T11:56:15;53652.19;;;-145.32;64.65
14041;BME280;7095;51.388;6.196;2023-04-26T11:58:45;53622.38;;;-145.32;60.31
14041;BME280;7095;51.388;6.196;2023-04-26T12:01:19;53628.31;;;-145.32;56.71
14041;BME280;7095;51.388;6.196;2023-04-26T12:03:51;53630.31;;;-145.32;57.82
14041;BME280;7095;51.388;6.196;2023-04-26T12:06:25;53630.31;;;-145.32;61.82
14041;BME280;7095;51.388;6.196;2023-04-26T12:08:56;53578.63;;;-145.32;64.23
14041;BME280;7095;51.388;6.196;2023-04-26T12:11:25;53590.56;;;-145.32;64.71
14041;BME280;7095;51.388;6.196;2023-04-26T12:13:57;53515.00;;;-145.32;58.35
14041;BME280;7095;51.388;6.196;2023-04-26T12:16:27;53536.88;;;-145.32;59.16
14041;BME280;7095;51.388;6.196;2023-04-26T12:18:57;53536.88;;;-145.32;56.41
14041;BME280;7095;51.388;6.196;2023-04-26T12:21:26;53524.94;;;-145.32;51.80
14041;BME280;7095;51.388;6.196;2023-04-26T12:23:57;53538.88;;;-145.32;52.42
14041;BME280;7095;51.388;6.196;2023-04-26T12:26:41;53534.88;;;-145.32;48.91
14041;BME280;7095;51.388;6.196;2023-04-26T12:29:11;53538.88;;;-145.32;50.68
14041;BME280;7095;51.388;6.196;2023-04-26T12:31:39;53528.94;;;-145.32;50.69
14041;BME280;7095;51.388;6.196;2023-04-26T12:34:10;53522.97;;;-145.32;48.84
14041;BME280;7095;51.388;6.196;2023-04-26T12:36:40;53588.56;;;-145.32;50.86
14041;BME280;7095;51.388;6.196;2023-04-26T12:39:09;53582.59;;;-145.32;49.86
14041;BME280;7095;51.388;6.196;2023-04-26T12:41:39;53584.59;;;-145.32;49.79
14041;BME280;7095;51.388;6.196;2023-04-26T12:44:09;53570.69;;;-145.32;52.74
14041;BME280;7095;51.388;6.196;2023-04-26T12:46:39;53600.50;;;-145.32;50.94
14041;BME280;7095;51.388;6.196;2023-04-26T12:49:10;53558.75;;;-145.32;50.08
14041;BME280;7095;51.388;6.196;2023-04-26T12:51:38;53574.66;;;-145.32;49.12
14041;BME280;7095;51.388;6.196;2023-04-26T12:54:07;53564.72;;;-145.32;48.13
14041;BME280;7095;51.388;6.196;2023-04-26T12:56:35;53524.94;;;-145.32;48.39
14041;BME280;7095;51.388;6.196;2023-04-26T12:59:09;53449.41;;;-145.32;47.67
14041;BME280;7095;51.388;6.196;2023-04-26T13:01:39;53517.00;;;-145.32;46.58